sensor_id;sensor_type;location;lat;lon;timestamp;temperature;humidity
24638;DHT22;12773;50.162;8.548;2022-12-17T00:02:21;-6.50;99.90
24638;DHT22;12773;50.162;8.548;2022-12-17T00:05:26;-6.60;99.90
24638;DHT22;12773;50.162;8.548;2022-12-17T00:08:31;-6.60;99.90
24638;DHT22;12773;50.162;8.548;2022-12-17T00:11:38;-6.60;99.90
24638;DHT22;12773;50.162;8.548;2022-12-17T00:14:44;-6.60;99.90
24638;DHT22;12773;50.162;8.548;2022-12-17T00:17:50;-6.50;99.90
24638;DHT22;12773;50.162;8.548;2022-12-17T00:20:57;-6.40;99.90
24638;DHT22;12773;50.162;8.548;2022-12-17T00:24:03;-6.50;99.90
24638;DHT22;12773;50.162;8.548;2022-12-17T00:27:09;-6.60;99.90
24638;DHT22;12773;50.162;8.548;2022-12-17T00:30:15;-6.70;99.90
24638;DHT22;12773;50.162;8.548;2022-12-17T00:33:24;-6.80;99.90
24638;DHT22;12773;50.162;8.548;2022-12-17T00:36:27;-6.70;99.90
24638;DHT22;12773;50.162;8.548;2022-12-17T00:39:32;-6.70;99.90
24638;DHT22;12773;50.162;8.548;2022-12-17T00:42:40;-6.70;99.90
24638;DHT22;12773;50.162;8.548;2022-12-17T00:45:45;-6.60;99.90
24638;DHT22;12773;50.162;8.548;2022-12-17T00:48:50;-6.60;99.90
24638;DHT22;12773;50.162;8.548;2022-12-17T00:51:56;-6.60;99.90
24638;DHT22;12773;50.162;8.548;2022-12-17T00:55:02;-6.60;99.90
24638;DHT22;12773;50.162;8.548;2022-12-17T00:58:08;-6.70;99.90
24638;DHT22;12773;50.162;8.548;2022-12-17T01:01:13;-6.70;99.90
24638;DHT22;12773;50.162;8.548;2022-12-17T01:04:08;-6.60;99.90
24638;DHT22;12773;50.162;8.548;2022-12-17T01:07:14;-6.60;99.90
24638;DHT22;12773;50.162;8.548;2022-12-17T01:10:20;-6.70;99.90
24638;DHT22;12773;50.162;8.548;2022-12-17T01:13:26;-6.70;99.90
24638;DHT22;12773;50.162;8.548;2022-12-17T01:16:32;-6.60;99.90
24638;DHT22;12773;50.162;8.548;2022-12-17T01:19:39;-6.60;99.90
24638;DHT22;12773;50.162;8.548;2022-12-17T01:22:45;-6.60;99.90
24638;DHT22;12773;50.162;8.548;2022-12-17T01:26:00;-6.60;99.90
24638;DHT22;12773;50.162;8.548;2022-12-17T01:29:06;-6.60;99.90
24638;DHT22;12773;50.162;8.548;2022-12-17T01:32:10;-6.50;99.90
24638;DHT22;12773;50.162;8.548;2022-12-17T01:34:59;-6.50;99.90
24638;DHT22;12773;50.162;8.548;2022-12-17T01:38:12;-6.60;99.90
24638;DHT22;12773;50.162;8.548;2022-12-17T01:41:17;-6.50;99.90
24638;DHT22;12773;50.162;8.548;2022-12-17T01:44:44;-6.50;99.90
24638;DHT22;12773;50.162;8.548;2022-12-17T01:47:54;-6.50;99.90
24638;DHT22;12773;50.162;8.548;2022-12-17T01:50:59;-6.50;99.90
24638;DHT22;12773;50.162;8.548;2022-12-17T01:54:04;-6.50;99.90
24638;DHT22;12773;50.162;8.548;2022-12-17T01:57:10;-6.60;99.90
24638;DHT22;12773;50.162;8.548;2022-12-17T02:00:17;-6.60;99.90
24638;DHT22;12773;50.162;8.548;2022-12-17T02:03:27;-6.60;99.90
24638;DHT22;12773;50.162;8.548;2022-12-17T02:06:33;-6.60;99.90
24638;DHT22;12773;50.162;8.548;2022-12-17T02:09:49;-6.70;99.90
24638;DHT22;12773;50.162;8.548;2022-12-17T02:12:53;-6.70;99.90
24638;DHT22;12773;50.162;8.548;2022-12-17T02:16:08;-6.60;99.90
24638;DHT22;12773;50.162;8.548;2022-12-17T02:25:42;-6.80;99.90
24638;DHT22;12773;50.162;8.548;2022-12-17T02:28:48;-6.80;99.90
24638;DHT22;12773;50.162;8.548;2022-12-17T02:31:55;-6.70;99.90
24638;DHT22;12773;50.162;8.548;2022-12-17T02:35:02;-6.80;99.90
24638;DHT22;12773;50.162;8.548;2022-12-17T02:38:23;-6.80;99.90
24638;DHT22;12773;50.162;8.548;2022-12-17T02:41:38;-6.70;99.90
24638;DHT22;12773;50.162;8.548;2022-12-17T02:44:43;-6.70;99.90
24638;DHT22;12773;50.162;8.548;2022-12-17T02:47:51;-6.80;99.90
24638;DHT22;12773;50.162;8.548;2022-12-17T02:50:58;-6.80;99.90
24638;DHT22;12773;50.162;8.548;2022-12-17T02:54:03;-6.70;99.90
24638;DHT22;12773;50.162;8.548;2022-12-17T02:57:08;-6.80;99.90
24638;DHT22;12773;50.162;8.548;2022-12-17T03:00:14;-6.80;99.90
24638;DHT22;12773;50.162;8.548;2022-12-17T03:03:20;-6.80;99.90
24638;DHT22;12773;50.162;8.548;2022-12-17T03:06:26;-6.80;99.90
24638;DHT22;12773;50.162;8.548;2022-12-17T03:09:33;-6.80;99.90
24638;DHT22;12773;50.162;8.548;2022-12-17T03:12:38;-6.80;99.90
24638;DHT22;12773;50.162;8.548;2022-12-17T03:15:43;-6.70;99.90
24638;DHT22;12773;50.162;8.548;2022-12-17T03:18:49;-6.60;99.90
24638;DHT22;12773;50.162;8.548;2022-12-17T03:21:54;-6.80;99.90
24638;DHT22;12773;50.162;8.548;2022-12-17T03:25:00;-6.90;99.90
24638;DHT22;12773;50.162;8.548;2022-12-17T03:28:06;-6.90;99.90
24638;DHT22;12773;50.162;8.548;2022-12-17T03:31:12;-6.90;99.90
24638;DHT22;12773;50.162;8.548;2022-12-17T03:34:18;-6.80;99.90
24638;DHT22;12773;50.162;8.548;2022-12-17T03:37:23;-6.80;99.90
24638;DHT22;12773;50.162;8.548;2022-12-17T03:40:28;-6.70;99.90
24638;DHT22;12773;50.162;8.548;2022-12-17T03:43:34;-6.80;99.90
24638;DHT22;12773;50.162;8.548;2022-12-17T03:46:40;-6.80;99.90
24638;DHT22;12773;50.162;8.548;2022-12-17T03:49:46;-6.90;99.90
24638;DHT22;12773;50.162;8.548;2022-12-17T03:52:54;-6.90;99.90
24638;DHT22;12773;50.162;8.548;2022-12-17T03:56:00;-6.90;99.90
24638;DHT22;12773;50.162;8.548;2022-12-17T03:59:07;-7.00;99.90
24638;DHT22;12773;50.162;8.548;2022-12-17T04:02:13;-7.00;99.90
24638;DHT22;12773;50.162;8.548;2022-12-17T04:05:17;-7.00;99.90
24638;DHT22;12773;50.162;8.548;2022-12-17T04:08:23;-7.00;99.90
24638;DHT22;12773;50.162;8.548;2022-12-17T04:11:28;-7.00;99.90
24638;DHT22;12773;50.162;8.548;2022-12-17T04:14:33;-7.00;99.90
24638;DHT22;12773;50.162;8.548;2022-12-17T04:17:39;-7.10;99.90
24638;DHT22;12773;50.162;8.548;2022-12-17T04:20:45;-7.10;99.90
24638;DHT22;12773;50.162;8.548;2022-12-17T04:23:50;-7.20;99.90
24638;DHT22;12773;50.162;8.548;2022-12-17T04:26:55;-7.20;99.90
24638;DHT22;12773;50.162;8.548;2022-12-17T04:30:01;-7.20;99.90
24638;DHT22;12773;50.162;8.548;2022-12-17T04:32:59;-7.10;99.90
24638;DHT22;12773;50.162;8.548;2022-12-17T04:36:05;-7.10;99.90
24638;DHT22;12773;50.162;8.548;2022-12-17T04:39:10;-7.10;99.90
24638;DHT22;12773;50.162;8.548;2022-12-17T04:42:16;-7.10;99.90
24638;DHT22;12773;50.162;8.548;2022-12-17T04:45:24;-7.10;99.90
24638;DHT22;12773;50.162;8.548;2022-12-17T04:48:30;-7.10;99.90
24638;DHT22;12773;50.162;8.548;2022-12-17T04:51:35;-7.10;99.90
24638;DHT22;12773;50.162;8.548;2022-12-17T04:54:41;-7.20;99.90
24638;DHT22;12773;50.162;8.548;2022-12-17T04:57:47;-7.20;99.90
24638;DHT22;12773;50.162;8.548;2022-12-17T05:00:53;-7.10;99.90
24638;DHT22;12773;50.162;8.548;2022-12-17T05:03:58;-7.20;99.90
24638;DHT22;12773;50.162;8.548;2022-12-17T05:07:04;-7.30;99.90
24638;DHT22;12773;50.162;8.548;2022-12-17T05:10:09;-7.30;99.90
24638;DHT22;12773;50.162;8.548;2022-12-17T05:13:15;-7.30;99.90
24638;DHT22;12773;50.162;8.548;2022-12-17T05:16:22;-7.40;99.90
24638;DHT22;12773;50.162;8.548;2022-12-17T05:19:27;-7.40;99.90
24638;DHT22;12773;50.162;8.548;2022-12-17T05:22:34;-7.30;99.90
24638;DHT22;12773;50.162;8.548;2022-12-17T05:25:39;-7.30;99.90
24638;DHT22;12773;50.162;8.548;2022-12-17T05:28:44;-7.30;99.90
24638;DHT22;12773;50.162;8.548;2022-12-17T05:31:50;-7.30;99.90
24638;DHT22;12773;50.162;8.548;2022-12-17T05:34:56;-7.30;99.90
24638;DHT22;12773;50.162;8.548;2022-12-17T05:38:03;-7.30;99.90
24638;DHT22;12773;50.162;8.548;2022-12-17T05:41:09;-7.20;99.90
24638;DHT22;12773;50.162;8.548;2022-12-17T05:44:14;-7.20;99.90
24638;DHT22;12773;50.162;8.548;2022-12-17T05:47:19;-7.10;99.90
24638;DHT22;12773;50.162;8.548;2022-12-17T05:50:27;-7.00;99.90
24638;DHT22;12773;50.162;8.548;2022-12-17T05:53:34;-7.00;99.90
24638;DHT22;12773;50.162;8.548;2022-12-17T05:56:39;-6.90;99.90
24638;DHT22;12773;50.162;8.548;2022-12-17T05:59:45;-6.90;99.90
24638;DHT22;12773;50.162;8.548;2022-12-17T06:03:02;-6.90;99.90
24638;DHT22;12773;50.162;8.548;2022-12-17T06:06:08;-6.90;99.90
24638;DHT22;12773;50.162;8.548;2022-12-17T06:09:13;-6.80;99.90
24638;DHT22;12773;50.162;8.548;2022-12-17T06:12:19;-6.90;99.90
24638;DHT22;12773;50.162;8.548;2022-12-17T06:15:24;-6.90;99.90
24638;DHT22;12773;50.162;8.548;2022-12-17T06:18:30;-6.80;99.90
24638;DHT22;12773;50.162;8.548;2022-12-17T06:21:35;-6.80;99.90
24638;DHT22;12773;50.162;8.548;2022-12-17T06:24:41;-6.80;99.90
24638;DHT22;12773;50.162;8.548;2022-12-17T06:27:46;-6.80;99.90
24638;DHT22;12773;50.162;8.548;2022-12-17T06:30:52;-6.80;99.90
24638;DHT22;12773;50.162;8.548;2022-12-17T06:33:57;-6.90;99.90
24638;DHT22;12773;50.162;8.548;2022-12-17T06:37:02;-7.00;99.90
24638;DHT22;12773;50.162;8.548;2022-12-17T06:40:08;-7.00;99.90
24638;DHT22;12773;50.162;8.548;2022-12-17T06:43:14;-7.00;99.90
24638;DHT22;12773;50.162;8.548;2022-12-17T06:46:21;-6.90;99.90
24638;DHT22;12773;50.162;8.548;2022-12-17T06:49:27;-6.90;99.90
24638;DHT22;12773;50.162;8.548;2022-12-17T06:52:33;-7.00;99.90
24638;DHT22;12773;50.162;8.548;2022-12-17T06:55:38;-7.10;99.90
24638;DHT22;12773;50.162;8.548;2022-12-17T06:58:44;-7.10;99.90
24638;DHT22;12773;50.162;8.548;2022-12-17T07:01:49;-7.10;99.90
24638;DHT22;12773;50.162;8.548;2022-12-17T07:04:55;-6.90;99.90
24638;DHT22;12773;50.162;8.548;2022-12-17T07:08:00;-6.80;99.90
24638;DHT22;12773;50.162;8.548;2022-12-17T07:11:05;-6.70;99.90
24638;DHT22;12773;50.162;8.548;2022-12-17T07:14:11;-6.60;99.90
24638;DHT22;12773;50.162;8.548;2022-12-17T07:17:16;-6.50;99.90
24638;DHT22;12773;50.162;8.548;2022-12-17T07:20:22;-6.40;99.90
24638;DHT22;12773;50.162;8.548;2022-12-17T07:23:27;-6.30;99.90
24638;DHT22;12773;50.162;8.548;2022-12-17T07:26:33;-6.20;99.90
24638;DHT22;12773;50.162;8.548;2022-12-17T07:29:38;-6.00;99.90
24638;DHT22;12773;50.162;8.548;2022-12-17T07:32:44;-5.90;99.90
24638;DHT22;12773;50.162;8.548;2022-12-17T07:35:52;-5.70;99.90
24638;DHT22;12773;50.162;8.548;2022-12-17T07:38:57;-5.50;99.90
24638;DHT22;12773;50.162;8.548;2022-12-17T07:42:03;-5.40;99.90
24638;DHT22;12773;50.162;8.548;2022-12-17T07:45:09;-5.20;99.90
24638;DHT22;12773;50.162;8.548;2022-12-17T07:48:14;-5.10;99.90
24638;DHT22;12773;50.162;8.548;2022-12-17T07:51:20;-4.90;99.90
24638;DHT22;12773;50.162;8.548;2022-12-17T07:54:25;-4.80;99.90
24638;DHT22;12773;50.162;8.548;2022-12-17T07:57:30;-4.70;99.90
24638;DHT22;12773;50.162;8.548;2022-12-17T08:00:35;-4.50;99.90
24638;DHT22;12773;50.162;8.548;2022-12-17T08:03:41;-4.40;99.90
24638;DHT22;12773;50.162;8.548;2022-12-17T08:06:46;-4.40;99.90
24638;DHT22;12773;50.162;8.548;2022-12-17T08:09:55;-4.30;99.90
24638;DHT22;12773;50.162;8.548;2022-12-17T08:13:03;-4.20;99.90
24638;DHT22;12773;50.162;8.548;2022-12-17T08:16:08;-4.10;99.90
24638;DHT22;12773;50.162;8.548;2022-12-17T08:19:13;-4.00;99.90
24638;DHT22;12773;50.162;8.548;2022-12-17T08:22:19;-3.90;99.90
24638;DHT22;12773;50.162;8.548;2022-12-17T08:25:24;-4.10;99.90
24638;DHT22;12773;50.162;8.548;2022-12-17T08:28:29;-4.00;99.90
24638;DHT22;12773;50.162;8.548;2022-12-17T08:31:36;-4.00;99.90
24638;DHT22;12773;50.162;8.548;2022-12-17T08:34:42;-3.90;99.90
24638;DHT22;12773;50.162;8.548;2022-12-17T08:37:48;-3.70;99.90
24638;DHT22;12773;50.162;8.548;2022-12-17T08:40:53;-3.70;99.90
24638;DHT22;12773;50.162;8.548;2022-12-17T08:43:58;-3.60;99.90
24638;DHT22;12773;50.162;8.548;2022-12-17T08:47:04;-3.60;99.90
24638;DHT22;12773;50.162;8.548;2022-12-17T08:50:09;-3.50;99.90
24638;DHT22;12773;50.162;8.548;2022-12-17T08:53:14;-3.50;99.90
24638;DHT22;12773;50.162;8.548;2022-12-17T08:56:23;-3.40;99.90
24638;DHT22;12773;50.162;8.548;2022-12-17T08:59:29;-3.50;99.90
24638;DHT22;12773;50.162;8.548;2022-12-17T09:02:34;-3.70;99.90
24638;DHT22;12773;50.162;8.548;2022-12-17T09:05:41;-3.40;99.90
24638;DHT22;12773;50.162;8.548;2022-12-17T09:08:46;-3.20;99.90
24638;DHT22;12773;50.162;8.548;2022-12-17T09:11:53;-3.10;99.90
24638;DHT22;12773;50.162;8.548;2022-12-17T09:14:58;-3.20;99.90
24638;DHT22;12773;50.162;8.548;2022-12-17T09:18:03;-3.20;99.90
24638;DHT22;12773;50.162;8.548;2022-12-17T09:21:13;-3.10;99.90
24638;DHT22;12773;50.162;8.548;2022-12-17T09:24:19;-3.00;99.90
24638;DHT22;12773;50.162;8.548;2022-12-17T09:27:25;-3.10;99.90
24638;DHT22;12773;50.162;8.548;2022-12-17T09:30:31;-3.00;99.90
24638;DHT22;12773;50.162;8.548;2022-12-17T09:33:38;-2.90;99.90
24638;DHT22;12773;50.162;8.548;2022-12-17T09:36:43;-2.70;99.90
24638;DHT22;12773;50.162;8.548;2022-12-17T09:39:49;-2.50;99.90
24638;DHT22;12773;50.162;8.548;2022-12-17T09:43:02;-2.40;99.90
24638;DHT22;12773;50.162;8.548;2022-12-17T09:46:51;-2.40;99.90
24638;DHT22;12773;50.162;8.548;2022-12-17T09:49:22;-2.40;99.90
24638;DHT22;12773;50.162;8.548;2022-12-17T09:52:31;-2.40;99.90
24638;DHT22;12773;50.162;8.548;2022-12-17T09:55:46;-2.40;99.90
24638;DHT22;12773;50.162;8.548;2022-12-17T09:58:54;-2.20;99.90
24638;DHT22;12773;50.162;8.548;2022-12-17T10:02:02;-2.20;99.90
24638;DHT22;12773;50.162;8.548;2022-12-17T10:05:20;-2.10;99.90
24638;DHT22;12773;50.162;8.548;2022-12-17T10:08:26;-2.20;99.90
24638;DHT22;12773;50.162;8.548;2022-12-17T10:11:33;-2.60;99.90
24638;DHT22;12773;50.162;8.548;2022-12-17T10:14:38;-2.60;99.90
24638;DHT22;12773;50.162;8.548;2022-12-17T10:17:43;-2.50;99.90
24638;DHT22;12773;50.162;8.548;2022-12-17T10:20:54;-2.40;99.90
24638;DHT22;12773;50.162;8.548;2022-12-17T10:24:07;-2.20;99.90
24638;DHT22;12773;50.162;8.548;2022-12-17T10:27:16;-2.10;99.90
24638;DHT22;12773;50.162;8.548;2022-12-17T10:30:23;-2.40;99.90
24638;DHT22;12773;50.162;8.548;2022-12-17T10:33:28;-2.30;99.90
24638;DHT22;12773;50.162;8.548;2022-12-17T10:36:34;-2.20;99.90
24638;DHT22;12773;50.162;8.548;2022-12-17T10:39:40;-2.00;99.90
24638;DHT22;12773;50.162;8.548;2022-12-17T10:42:46;-1.80;99.90
24638;DHT22;12773;50.162;8.548;2022-12-17T10:45:53;-1.70;99.90
24638;DHT22;12773;50.162;8.548;2022-12-17T10:49:10;-1.60;99.90
24638;DHT22;12773;50.162;8.548;2022-12-17T10:52:30;-1.50;99.90
24638;DHT22;12773;50.162;8.548;2022-12-17T10:55:36;-2.10;99.90
24638;DHT22;12773;50.162;8.548;2022-12-17T10:58:49;-2.30;99.90
24638;DHT22;12773;50.162;8.548;2022-12-17T11:01:56;-2.20;99.90
24638;DHT22;12773;50.162;8.548;2022-12-17T11:05:03;-2.00;99.90
24638;DHT22;12773;50.162;8.548;2022-12-17T11:08:14;-1.80;99.90
24638;DHT22;12773;50.162;8.548;2022-12-17T11:11:24;-1.80;99.90
24638;DHT22;12773;50.162;8.548;2022-12-17T11:14:31;-1.80;99.90
24638;DHT22;12773;50.162;8.548;2022-12-17T11:17:39;-1.80;99.90
24638;DHT22;12773;50.162;8.548;2022-12-17T11:20:53;-1.50;99.90
24638;DHT22;12773;50.162;8.548;2022-12-17T11:23:55;-1.40;99.90
24638;DHT22;12773;50.162;8.548;2022-12-17T11:27:05;-1.40;99.90
24638;DHT22;12773;50.162;8.548;2022-12-17T11:30:13;-1.50;99.90
24638;DHT22;12773;50.162;8.548;2022-12-17T11:33:21;-1.50;99.90
24638;DHT22;12773;50.162;8.548;2022-12-17T11:36:31;-1.40;99.90
24638;DHT22;12773;50.162;8.548;2022-12-17T11:39:46;-1.20;99.90
24638;DHT22;12773;50.162;8.548;2022-12-17T11:43:13;-1.10;99.90
24638;DHT22;12773;50.162;8.548;2022-12-17T11:46:37;-1.00;99.90
24638;DHT22;12773;50.162;8.548;2022-12-17T11:50:01;-0.90;99.90
24638;DHT22;12773;50.162;8.548;2022-12-17T11:56:48;-0.70;99.90
24638;DHT22;12773;50.162;8.548;2022-12-17T12:00:04;-0.70;99.90
24638;DHT22;12773;50.162;8.548;2022-12-17T12:06:45;-0.60;99.90
24638;DHT22;12773;50.162;8.548;2022-12-17T12:16:25;-0.70;99.90
24638;DHT22;12773;50.162;8.548;2022-12-17T12:22:49;-0.90;99.90
24638;DHT22;12773;50.162;8.548;2022-12-17T12:25:58;-0.90;99.90
24638;DHT22;12773;50.162;8.548;2022-12-17T12:32:42;-0.70;99.90
24638;DHT22;12773;50.162;8.548;2022-12-17T12:35:48;-0.70;99.90
24638;DHT22;12773;50.162;8.548;2022-12-17T12:38:55;-0.60;99.90
24638;DHT22;12773;50.162;8.548;2022-12-17T12:42:08;-0.60;99.90
24638;DHT22;12773;50.162;8.548;2022-12-17T12:45:51;-0.80;99.90
24638;DHT22;12773;50.162;8.548;2022-12-17T12:49:13;-0.70;99.90
24638;DHT22;12773;50.162;8.548;2022-12-17T12:52:20;-0.90;99.90
24638;DHT22;12773;50.162;8.548;2022-12-17T12:55:37;-0.90;99.90
24638;DHT22;12773;50.162;8.548;2022-12-17T12:58:43;-1.10;99.90
24638;DHT22;12773;50.162;8.548;2022-12-17T13:01:50;-1.40;99.90
24638;DHT22;12773;50.162;8.548;2022-12-17T13:04:55;-1.40;99.90
24638;DHT22;12773;50.162;8.548;2022-12-17T13:08:24;-1.30;99.90
24638;DHT22;12773;50.162;8.548;2022-12-17T13:10:53;-1.20;99.90
24638;DHT22;12773;50.162;8.548;2022-12-17T13:13:44;-1.20;99.90
24638;DHT22;12773;50.162;8.548;2022-12-17T13:19:37;-1.20;99.90
24638;DHT22;12773;50.162;8.548;2022-12-17T13:22:32;-1.00;99.90
24638;DHT22;12773;50.162;8.548;2022-12-17T13:25:24;-1.10;99.90
24638;DHT22;12773;50.162;8.548;2022-12-17T13:28:30;-0.90;99.90
24638;DHT22;12773;50.162;8.548;2022-12-17T13:31:17;-1.10;99.90
24638;DHT22;12773;50.162;8.548;2022-12-17T13:34:16;-1.20;99.90
24638;DHT22;12773;50.162;8.548;2022-12-17T13:43:25;-1.30;99.90
24638;DHT22;12773;50.162;8.548;2022-12-17T13:46:43;-1.10;99.90
24638;DHT22;12773;50.162;8.548;2022-12-17T13:49:32;-1.20;99.90
24638;DHT22;12773;50.162;8.548;2022-12-17T13:52:24;-1.40;99.90
24638;DHT22;12773;50.162;8.548;2022-12-17T13:55:26;-1.70;99.90
24638;DHT22;12773;50.162;8.548;2022-12-17T13:58:28;-1.50;99.90
24638;DHT22;12773;50.162;8.548;2022-12-17T14:01:17;-1.40;99.90
24638;DHT22;12773;50.162;8.548;2022-12-17T14:04:05;-1.30;99.90
24638;DHT22;12773;50.162;8.548;2022-12-17T14:06:59;-1.20;99.90
24638;DHT22;12773;50.162;8.548;2022-12-17T14:09:47;-1.10;99.90
24638;DHT22;12773;50.162;8.548;2022-12-17T14:12:35;-1.10;99.90
24638;DHT22;12773;50.162;8.548;2022-12-17T14:15:25;-1.30;99.90
24638;DHT22;12773;50.162;8.548;2022-12-17T14:18:16;-1.80;99.90
24638;DHT22;12773;50.162;8.548;2022-12-17T14:21:04;-1.80;99.90
24638;DHT22;12773;50.162;8.548;2022-12-17T14:23:52;-1.60;99.90
24638;DHT22;12773;50.162;8.548;2022-12-17T14:29:43;-2.00;99.90
24638;DHT22;12773;50.162;8.548;2022-12-17T14:32:33;-1.90;99.90
24638;DHT22;12773;50.162;8.548;2022-12-17T14:35:29;-2.00;99.90
24638;DHT22;12773;50.162;8.548;2022-12-17T14:38:17;-1.80;99.90
24638;DHT22;12773;50.162;8.548;2022-12-17T14:41:11;-1.70;99.90
24638;DHT22;12773;50.162;8.548;2022-12-17T14:44:20;-1.60;99.90
24638;DHT22;12773;50.162;8.548;2022-12-17T14:53:02;-1.70;99.90
24638;DHT22;12773;50.162;8.548;2022-12-17T14:55:57;-1.90;99.90
24638;DHT22;12773;50.162;8.548;2022-12-17T14:58:45;-2.00;99.90
24638;DHT22;12773;50.162;8.548;2022-12-17T15:01:33;-2.00;99.90
24638;DHT22;12773;50.162;8.548;2022-12-17T15:04:20;-1.80;99.90
24638;DHT22;12773;50.162;8.548;2022-12-17T15:07:12;-1.70;99.90
24638;DHT22;12773;50.162;8.548;2022-12-17T15:10:07;-1.60;99.90
24638;DHT22;12773;50.162;8.548;2022-12-17T15:12:56;-1.60;99.90
24638;DHT22;12773;50.162;8.548;2022-12-17T15:15:39;-1.60;99.90
24638;DHT22;12773;50.162;8.548;2022-12-17T15:18:28;-1.60;99.90
24638;DHT22;12773;50.162;8.548;2022-12-17T15:21:16;-1.70;99.90
24638;DHT22;12773;50.162;8.548;2022-12-17T15:24:08;-1.70;99.90
24638;DHT22;12773;50.162;8.548;2022-12-17T15:26:58;-1.70;99.90
24638;DHT22;12773;50.162;8.548;2022-12-17T15:29:48;-1.70;99.90
24638;DHT22;12773;50.162;8.548;2022-12-17T15:32:35;-1.70;99.90
24638;DHT22;12773;50.162;8.548;2022-12-17T15:35:23;-1.80;99.90
24638;DHT22;12773;50.162;8.548;2022-12-17T15:38:11;-1.80;99.90
24638;DHT22;12773;50.162;8.548;2022-12-17T15:41:00;-1.70;99.90
24638;DHT22;12773;50.162;8.548;2022-12-17T15:43:49;-1.70;99.90
24638;DHT22;12773;50.162;8.548;2022-12-17T15:46:39;-1.70;99.90
24638;DHT22;12773;50.162;8.548;2022-12-17T15:49:27;-1.80;99.90
24638;DHT22;12773;50.162;8.548;2022-12-17T15:52:14;-1.80;99.90
24638;DHT22;12773;50.162;8.548;2022-12-17T15:55:02;-1.70;99.90
24638;DHT22;12773;50.162;8.548;2022-12-17T15:57:50;-1.70;99.90
24638;DHT22;12773;50.162;8.548;2022-12-17T16:00:40;-1.70;99.90
24638;DHT22;12773;50.162;8.548;2022-12-17T16:03:28;-1.80;99.90
24638;DHT22;12773;50.162;8.548;2022-12-17T16:06:15;-1.90;99.90
24638;DHT22;12773;50.162;8.548;2022-12-17T16:09:03;-1.90;99.90
24638;DHT22;12773;50.162;8.548;2022-12-17T16:11:53;-1.90;99.90
24638;DHT22;12773;50.162;8.548;2022-12-17T16:14:41;-2.00;99.90
24638;DHT22;12773;50.162;8.548;2022-12-17T16:17:28;-2.10;99.90
24638;DHT22;12773;50.162;8.548;2022-12-17T16:20:16;-2.10;99.90
24638;DHT22;12773;50.162;8.548;2022-12-17T16:23:08;-2.00;99.90
24638;DHT22;12773;50.162;8.548;2022-12-17T16:26:00;-2.00;99.90
24638;DHT22;12773;50.162;8.548;2022-12-17T16:28:47;-2.10;99.90
24638;DHT22;12773;50.162;8.548;2022-12-17T16:31:34;-2.00;99.90
24638;DHT22;12773;50.162;8.548;2022-12-17T16:34:22;-2.20;99.90
24638;DHT22;12773;50.162;8.548;2022-12-17T16:37:10;-2.30;99.90
24638;DHT22;12773;50.162;8.548;2022-12-17T16:39:57;-2.40;99.90
24638;DHT22;12773;50.162;8.548;2022-12-17T16:42:46;-2.20;99.90
24638;DHT22;12773;50.162;8.548;2022-12-17T16:45:33;-2.20;99.90
24638;DHT22;12773;50.162;8.548;2022-12-17T16:48:21;-2.10;99.90
24638;DHT22;12773;50.162;8.548;2022-12-17T16:51:16;-2.20;99.90
24638;DHT22;12773;50.162;8.548;2022-12-17T16:54:13;-2.10;99.90
24638;DHT22;12773;50.162;8.548;2022-12-17T16:57:01;-2.20;99.90
24638;DHT22;12773;50.162;8.548;2022-12-17T16:59:49;-2.30;99.90
24638;DHT22;12773;50.162;8.548;2022-12-17T17:02:37;-2.30;99.90
24638;DHT22;12773;50.162;8.548;2022-12-17T17:05:25;-2.40;99.90
24638;DHT22;12773;50.162;8.548;2022-12-17T17:08:13;-2.40;99.90
24638;DHT22;12773;50.162;8.548;2022-12-17T17:11:10;-2.40;99.90
24638;DHT22;12773;50.162;8.548;2022-12-17T17:13:55;-2.50;99.90
24638;DHT22;12773;50.162;8.548;2022-12-17T17:16:43;-2.80;99.90
24638;DHT22;12773;50.162;8.548;2022-12-17T17:19:30;-2.80;99.90
24638;DHT22;12773;50.162;8.548;2022-12-17T17:22:18;-2.80;99.90
24638;DHT22;12773;50.162;8.548;2022-12-17T17:25:06;-2.70;99.90
24638;DHT22;12773;50.162;8.548;2022-12-17T17:27:53;-2.70;99.90
24638;DHT22;12773;50.162;8.548;2022-12-17T17:30:41;-2.70;99.90
24638;DHT22;12773;50.162;8.548;2022-12-17T17:33:36;-2.70;99.90
24638;DHT22;12773;50.162;8.548;2022-12-17T17:36:21;-2.80;99.90
24638;DHT22;12773;50.162;8.548;2022-12-17T17:39:09;-2.70;99.90
24638;DHT22;12773;50.162;8.548;2022-12-17T17:41:57;-2.60;99.90
24638;DHT22;12773;50.162;8.548;2022-12-17T17:44:44;-2.70;99.90
24638;DHT22;12773;50.162;8.548;2022-12-17T17:47:32;-2.70;99.90
24638;DHT22;12773;50.162;8.548;2022-12-17T17:50:20;-2.90;99.90
24638;DHT22;12773;50.162;8.548;2022-12-17T17:53:09;-3.00;99.90
24638;DHT22;12773;50.162;8.548;2022-12-17T17:56:01;-3.10;99.90
24638;DHT22;12773;50.162;8.548;2022-12-17T17:58:51;-3.10;99.90
24638;DHT22;12773;50.162;8.548;2022-12-17T18:01:42;-3.20;99.90
24638;DHT22;12773;50.162;8.548;2022-12-17T18:04:29;-3.20;99.90
24638;DHT22;12773;50.162;8.548;2022-12-17T18:07:17;-3.30;99.90
24638;DHT22;12773;50.162;8.548;2022-12-17T18:10:07;-3.20;99.90
24638;DHT22;12773;50.162;8.548;2022-12-17T18:12:54;-3.10;99.90
24638;DHT22;12773;50.162;8.548;2022-12-17T18:16:00;-3.10;99.90
24638;DHT22;12773;50.162;8.548;2022-12-17T18:18:48;-3.00;99.90
24638;DHT22;12773;50.162;8.548;2022-12-17T18:21:35;-3.00;99.90
24638;DHT22;12773;50.162;8.548;2022-12-17T18:24:23;-3.00;99.90
24638;DHT22;12773;50.162;8.548;2022-12-17T18:27:10;-3.20;99.90
24638;DHT22;12773;50.162;8.548;2022-12-17T18:29:58;-3.40;99.90
24638;DHT22;12773;50.162;8.548;2022-12-17T18:32:47;-3.40;99.90
24638;DHT22;12773;50.162;8.548;2022-12-17T18:35:34;-3.50;99.90
24638;DHT22;12773;50.162;8.548;2022-12-17T18:38:23;-3.60;99.90
24638;DHT22;12773;50.162;8.548;2022-12-17T18:41:13;-3.80;99.90
24638;DHT22;12773;50.162;8.548;2022-12-17T18:44:15;-3.80;99.90
24638;DHT22;12773;50.162;8.548;2022-12-17T18:47:02;-3.80;99.90
24638;DHT22;12773;50.162;8.548;2022-12-17T18:49:50;-3.80;99.90
24638;DHT22;12773;50.162;8.548;2022-12-17T18:52:39;-3.80;99.90
24638;DHT22;12773;50.162;8.548;2022-12-17T18:55:26;-4.00;99.90
24638;DHT22;12773;50.162;8.548;2022-12-17T18:58:14;-4.10;99.90
24638;DHT22;12773;50.162;8.548;2022-12-17T19:01:01;-4.10;99.90
24638;DHT22;12773;50.162;8.548;2022-12-17T19:03:49;-4.00;99.90
24638;DHT22;12773;50.162;8.548;2022-12-17T19:06:40;-3.90;99.90
24638;DHT22;12773;50.162;8.548;2022-12-17T19:09:30;-3.80;99.90
24638;DHT22;12773;50.162;8.548;2022-12-17T19:12:23;-3.80;99.90
24638;DHT22;12773;50.162;8.548;2022-12-17T19:15:10;-3.80;99.90
24638;DHT22;12773;50.162;8.548;2022-12-17T19:17:57;-3.70;99.90
24638;DHT22;12773;50.162;8.548;2022-12-17T19:20:44;-3.70;99.90
24638;DHT22;12773;50.162;8.548;2022-12-17T19:23:32;-3.70;99.90
24638;DHT22;12773;50.162;8.548;2022-12-17T19:26:21;-3.70;99.90
24638;DHT22;12773;50.162;8.548;2022-12-17T19:29:10;-3.60;99.90
24638;DHT22;12773;50.162;8.548;2022-12-17T19:31:58;-3.60;99.90
24638;DHT22;12773;50.162;8.548;2022-12-17T19:34:45;-3.70;99.90
24638;DHT22;12773;50.162;8.548;2022-12-17T19:37:33;-3.60;99.90
24638;DHT22;12773;50.162;8.548;2022-12-17T19:40:20;-3.50;99.90
24638;DHT22;12773;50.162;8.548;2022-12-17T19:43:10;-3.50;99.90
24638;DHT22;12773;50.162;8.548;2022-12-17T19:46:06;-3.70;99.90
24638;DHT22;12773;50.162;8.548;2022-12-17T19:48:54;-3.80;99.90